Time;durP1;ratioP1;P1;durP2;ratioP2;P2;SDS_P1;SDS_P2;PMS_P1;PMS_P2;Temp;Humidity;BMP_temperature;BMP_pressure;BME280_temperature;BME280_humidity;BME280_pressure;Samples;Min_cycle;Max_cycle;Signal;HPM_P1;HPM_P2
2022/07/15 00:01:52;;;;;;;2.22;1.02;;;17.00;61.80;;;;;;5042700;28;20424;-69
2022/07/15 00:04:18;;;;;;;4.55;1.50;;;17.00;61.90;;;;;;5037883;28;20064;-69
2022/07/15 00:06:43;;;;;;;4.00;1.08;;;17.00;62.00;;;;;;5042705;28;20024;-67
2022/07/15 00:09:09;;;;;;;2.53;1.10;;;16.90;62.20;;;;;;5038842;28;20029;-67
2022/07/15 00:11:35;;;;;;;2.78;1.20;;;16.90;62.30;;;;;;5039652;28;20028;-67
2022/07/15 00:14:00;;;;;;;5.10;1.33;;;16.80;62.50;;;;;;5038556;28;21956;-68
2022/07/15 00:16:26;;;;;;;3.97;1.20;;;16.80;62.60;;;;;;5041009;28;20548;-68
2022/07/15 00:18:51;;;;;;;2.53;1.13;;;16.70;62.70;;;;;;5038660;28;20033;-68
2022/07/15 00:21:17;;;;;;;3.33;1.30;;;16.70;62.80;;;;;;5044163;28;20021;-68
2022/07/15 00:23:42;;;;;;;3.67;1.40;;;16.60;62.90;;;;;;5039304;28;20021;-69
2022/07/15 00:26:08;;;;;;;4.10;1.38;;;16.60;62.90;;;;;;5038476;28;20025;-69
2022/07/15 00:28:34;;;;;;;2.47;1.10;;;16.60;62.90;;;;;;5041254;28;20021;-69
2022/07/15 00:30:59;;;;;;;3.17;1.17;;;16.60;63.10;;;;;;5043144;28;20024;-69
2022/07/15 00:33:25;;;;;;;2.47;1.10;;;16.50;63.20;;;;;;5042755;28;20416;-69
2022/07/15 00:35:51;;;;;;;2.38;1.00;;;16.50;63.30;;;;;;5041651;28;20031;-68
2022/07/15 00:38:17;;;;;;;4.20;1.30;;;16.50;63.40;;;;;;5042667;28;20032;-68
2022/07/15 00:40:44;;;;;;;3.45;1.20;;;16.50;63.40;;;;;;5041449;28;20025;-69
2022/07/15 00:43:10;;;;;;;4.15;1.30;;;16.50;63.40;;;;;;5043209;28;20037;-69
2022/07/15 00:45:36;;;;;;;3.33;1.20;;;16.60;63.40;;;;;;5041651;28;20661;-69
2022/07/15 00:48:01;;;;;;;3.92;1.20;;;16.60;63.40;;;;;;5042269;28;20027;-69
2022/07/15 00:50:29;;;;;;;4.35;1.27;;;16.60;63.40;;;;;;5045714;28;20036;-68
2022/07/15 00:52:58;;;;;;;2.33;1.00;;;16.60;63.40;;;;;;5044727;28;20703;-67
2022/07/15 00:55:24;;;;;;;2.83;0.90;;;16.60;63.50;;;;;;5038473;28;20091;-68
2022/07/15 00:57:54;;;;;;;2.95;1.02;;;16.60;63.40;;;;;;5037755;28;20033;-69
2022/07/15 01:00:21;;;;;;;3.05;1.20;;;16.60;63.30;;;;;;5038553;28;20098;-69
2022/07/15 01:02:50;;;;;;;2.60;0.93;;;16.60;63.40;;;;;;5051967;28;20017;-69
2022/07/15 01:05:18;;;;;;;4.05;1.35;;;16.60;63.40;;;;;;5049353;28;20052;-69
2022/07/15 01:07:45;;;;;;;2.28;1.02;;;16.70;63.50;;;;;;5052098;28;20032;-69
2022/07/15 01:10:10;;;;;;;1.17;0.88;;;16.70;63.50;;;;;;5051054;28;20035;-68
2022/07/15 01:12:42;;;;;;;2.45;1.00;;;16.70;63.60;;;;;;5051696;28;20029;-68
2022/07/15 01:15:09;;;;;;;2.90;1.20;;;16.70;63.60;;;;;;5049917;28;20033;-68
2022/07/15 01:17:34;;;;;;;2.30;0.82;;;16.70;63.60;;;;;;5051076;28;20024;-68
2022/07/15 01:20:00;;;;;;;3.55;1.27;;;16.70;63.50;;;;;;5050253;28;20090;-67
2022/07/15 01:22:26;;;;;;;2.35;1.10;;;16.70;63.60;;;;;;5059018;28;20021;-68
2022/07/15 01:24:52;;;;;;;2.80;1.10;;;16.80;63.60;;;;;;5050234;28;20732;-68
2022/07/15 01:27:18;;;;;;;2.53;1.00;;;16.80;63.60;;;;;;5045995;28;20032;-69
2022/07/15 01:29:44;;;;;;;4.15;1.23;;;16.80;63.60;;;;;;5050581;28;20021;-69
2022/07/15 01:32:10;;;;;;;3.75;1.10;;;16.80;63.50;;;;;;5042720;28;20029;-69
2022/07/15 01:34:35;;;;;;;1.48;1.02;;;16.80;63.40;;;;;;5049893;28;20036;-69
2022/07/15 01:37:01;;;;;;;2.97;1.00;;;16.90;63.30;;;;;;5046001;28;20025;-69
2022/07/15 01:39:26;;;;;;;2.17;1.02;;;16.90;63.20;;;;;;5050677;28;20059;-69
2022/07/15 01:41:52;;;;;;;3.72;1.10;;;16.90;63.20;;;;;;5050588;28;20064;-69
2022/07/15 01:44:17;;;;;;;3.33;1.00;;;17.00;63.30;;;;;;5049331;28;20033;-70
2022/07/15 01:46:43;;;;;;;2.58;0.90;;;16.90;63.20;;;;;;5039904;28;20087;-70
2022/07/15 01:49:29;;;;;;;2.50;1.30;;;17.00;63.30;;;;;;5047129;28;20025;-70
2022/07/15 01:51:56;;;;;;;3.60;1.10;;;17.00;63.30;;;;;;5046457;28;20040;-69
2022/07/15 01:54:27;;;;;;;2.92;1.10;;;16.90;63.30;;;;;;5046975;28;20039;-70
2022/07/15 01:56:53;;;;;;;2.72;0.80;;;17.00;63.50;;;;;;5048850;28;20036;-69
2022/07/15 01:59:24;;;;;;;2.42;1.00;;;17.00;63.40;;;;;;5048643;28;20067;-70
2022/07/15 02:01:51;;;;;;;2.00;0.88;;;17.00;63.40;;;;;;5049375;28;20075;-69
2022/07/15 02:04:17;;;;;;;2.80;1.00;;;17.00;63.40;;;;;;5046162;28;20067;-70
2022/07/15 02:06:43;;;;;;;2.20;1.10;;;17.00;63.40;;;;;;5049082;28;20365;-68
2022/07/15 02:09:09;;;;;;;1.67;0.95;;;17.00;63.30;;;;;;5048595;28;20067;-69
2022/07/15 02:11:35;;;;;;;3.17;1.00;;;17.10;63.30;;;;;;5040166;28;20083;-70
2022/07/15 02:14:01;;;;;;;2.17;1.00;;;17.10;63.20;;;;;;5049840;28;20529;-69
2022/07/15 02:16:31;;;;;;;2.50;0.90;;;17.00;63.20;;;;;;5049188;28;20029;-67
2022/07/15 02:18:57;;;;;;;2.35;1.10;;;17.10;63.30;;;;;;5050890;28;20048;-68
2022/07/15 02:21:23;;;;;;;2.42;0.88;;;17.00;63.30;;;;;;5045324;28;20025;-68
2022/07/15 02:23:49;;;;;;;2.70;1.20;;;17.00;63.40;;;;;;5050852;28;20044;-68
2022/07/15 02:26:15;;;;;;;2.53;1.02;;;17.10;63.40;;;;;;5049131;28;20052;-69
2022/07/15 02:28:41;;;;;;;1.85;0.88;;;17.10;63.40;;;;;;5052619;28;20056;-69
2022/07/15 02:31:06;;;;;;;2.63;0.90;;;17.10;63.30;;;;;;5049256;28;20033;-70
2022/07/15 02:33:32;;;;;;;2.50;0.98;;;17.10;63.10;;;;;;5050759;28;20517;-70
2022/07/15 02:35:57;;;;;;;2.00;1.00;;;17.10;63.20;;;;;;5049062;28;20423;-70
2022/07/15 02:38:23;;;;;;;2.70;0.98;;;17.10;63.20;;;;;;5049821;28;20021;-70
2022/07/15 02:40:49;;;;;;;3.05;0.90;;;17.10;63.20;;;;;;5046862;28;20381;-69
2022/07/15 02:43:15;;;;;;;2.13;0.98;;;17.10;63.20;;;;;;5042978;28;20024;-69
2022/07/15 02:45:41;;;;;;;3.70;1.00;;;17.10;63.20;;;;;;5049709;28;20111;-68
2022/07/15 02:48:08;;;;;;;3.33;1.10;;;17.10;63.20;;;;;;5046618;28;20055;-69
2022/07/15 02:50:34;;;;;;;1.70;1.00;;;17.10;63.20;;;;;;5050158;28;20021;-68
2022/07/15 02:53:01;;;;;;;1.88;0.85;;;17.10;63.30;;;;;;5048781;28;20031;-68
2022/07/15 02:55:27;;;;;;;3.40;0.88;;;17.10;63.30;;;;;;5048593;28;20017;-68
2022/07/15 02:57:52;;;;;;;2.88;1.02;;;17.10;63.40;;;;;;5048424;28;20364;-69
2022/07/15 03:00:19;;;;;;;1.75;0.90;;;17.10;63.50;;;;;;5049190;28;20025;-67
2022/07/15 03:02:45;;;;;;;2.20;0.80;;;17.10;63.50;;;;;;5047410;28;20067;-68
2022/07/15 03:05:11;;;;;;;1.65;0.90;;;17.10;63.50;;;;;;5050013;28;20024;-68
2022/07/15 03:07:38;;;;;;;3.83;1.20;;;17.10;63.40;;;;;;5048596;28;20095;-69
2022/07/15 03:10:05;;;;;;;1.58;0.90;;;17.20;63.30;;;;;;5049274;28;20021;-68
2022/07/15 03:12:31;;;;;;;2.67;0.90;;;17.10;63.20;;;;;;5048443;28;20566;-69
2022/07/15 03:14:57;;;;;;;3.30;1.00;;;17.10;63.10;;;;;;5042204;28;20372;-69
2022/07/15 03:17:22;;;;;;;2.47;1.00;;;17.10;63.10;;;;;;5048749;28;20025;-69
2022/07/15 03:19:48;;;;;;;1.20;0.80;;;17.10;63.20;;;;;;5049002;28;20476;-69
2022/07/15 03:22:13;;;;;;;1.05;0.80;;;17.10;63.30;;;;;;5048486;28;20020;-69
2022/07/15 03:24:39;;;;;;;2.50;1.15;;;17.00;63.30;;;;;;5048925;28;20094;-69
2022/07/15 03:27:04;;;;;;;2.15;1.05;;;17.00;63.40;;;;;;5042035;28;20053;-68
2022/07/15 03:29:30;;;;;;;2.58;1.00;;;17.00;63.40;;;;;;5049317;28;20059;-69
2022/07/15 03:31:56;;;;;;;1.52;0.82;;;17.00;63.40;;;;;;5047671;28;20028;-69
2022/07/15 03:34:25;;;;;;;2.47;1.00;;;17.00;63.40;;;;;;5049680;28;20032;-69
2022/07/15 03:36:51;;;;;;;2.40;1.00;;;17.00;63.40;;;;;;5040788;28;20032;-69
2022/07/15 03:39:16;;;;;;;2.70;1.08;;;16.90;63.50;;;;;;5047224;28;20029;-70
2022/07/15 03:41:42;;;;;;;3.13;0.95;;;16.90;63.50;;;;;;5048541;28;20092;-69
2022/07/15 03:44:08;;;;;;;2.28;1.00;;;16.90;63.60;;;;;;5041907;28;20048;-70
2022/07/15 03:46:33;;;;;;;3.92;1.20;;;16.80;63.90;;;;;;5046368;28;20045;-69
2022/07/15 03:49:00;;;;;;;3.83;1.15;;;16.80;64.10;;;;;;5048005;28;20024;-69
2022/07/15 03:51:30;;;;;;;1.50;0.90;;;16.80;64.10;;;;;;5048949;28;20450;-70
2022/07/15 03:53:59;;;;;;;1.80;0.70;;;16.80;64.10;;;;;;5048555;28;20102;-71
2022/07/15 03:56:27;;;;;;;3.33;1.00;;;16.80;64.20;;;;;;5049159;28;20132;-69
2022/07/15 03:58:52;;;;;;;1.58;0.80;;;16.80;64.40;;;;;;5048505;28;20108;-69
2022/07/15 04:01:18;;;;;;;2.05;0.80;;;16.80;64.40;;;;;;5048670;28;20460;-69
2022/07/15 04:03:44;;;;;;;2.30;0.90;;;16.80;64.30;;;;;;5051017;28;20036;-70
2022/07/15 04:06:10;;;;;;;1.77;0.93;;;16.80;64.30;;;;;;5053450;28;20028;-69
2022/07/15 04:08:35;;;;;;;2.05;0.80;;;16.80;64.40;;;;;;5052316;28;20476;-69
2022/07/15 04:11:01;;;;;;;1.75;1.05;;;16.80;64.40;;;;;;5053382;28;20033;-69
2022/07/15 04:13:26;;;;;;;3.25;0.95;;;16.80;64.40;;;;;;5050654;28;20005;-69
2022/07/15 04:15:52;;;;;;;1.92;0.90;;;16.80;64.50;;;;;;5053335;28;20391;-70
2022/07/15 04:18:18;;;;;;;4.05;0.98;;;16.80;64.50;;;;;;5044711;28;20492;-70
2022/07/15 04:20:43;;;;;;;2.45;0.85;;;16.70;64.70;;;;;;5052885;28;20025;-70
2022/07/15 04:23:09;;;;;;;1.83;1.00;;;16.70;64.70;;;;;;5048498;28;20481;-70
2022/07/15 04:25:35;;;;;;;5.00;1.08;;;16.70;64.80;;;;;;5049292;28;20039;-70
2022/07/15 04:28:01;;;;;;;3.55;1.08;;;16.70;65.00;;;;;;5053757;28;20025;-71
2022/07/15 04:30:26;;;;;;;4.05;1.00;;;16.70;64.90;;;;;;5057156;28;20495;-70
2022/07/15 04:32:52;;;;;;;2.47;0.98;;;16.70;65.00;;;;;;5047822;28;20040;-71
2022/07/15 04:35:17;;;;;;;3.40;1.00;;;16.60;65.00;;;;;;5051631;28;20025;-69
2022/07/15 04:37:43;;;;;;;3.60;1.10;;;16.70;65.00;;;;;;5052755;28;20460;-68
2022/07/15 04:40:11;;;;;;;2.83;0.90;;;16.60;64.90;;;;;;5050457;28;20385;-67
2022/07/15 04:42:37;;;;;;;1.83;0.90;;;16.60;64.90;;;;;;5052459;28;20043;-70
2022/07/15 04:45:03;;;;;;;3.20;0.90;;;16.70;65.00;;;;;;5050553;28;20029;-70
2022/07/15 04:47:28;;;;;;;3.53;1.33;;;16.60;65.00;;;;;;5052045;28;20049;-70
2022/07/15 04:52:46;;;;;;;3.78;0.90;;;16.60;65.00;;;;;;5052612;28;20446;-69
2022/07/15 04:55:13;;;;;;;2.50;0.80;;;16.60;65.00;;;;;;5048189;28;20028;-70
2022/07/15 04:57:38;;;;;;;1.83;0.95;;;16.60;65.00;;;;;;5052543;28;20398;-69
2022/07/15 05:00:05;;;;;;;2.53;0.80;;;16.70;65.10;;;;;;5048644;28;20029;-70
2022/07/15 05:02:30;;;;;;;3.58;0.98;;;16.70;65.00;;;;;;5045477;28;20037;-70
2022/07/15 05:04:56;;;;;;;2.33;0.90;;;16.70;65.10;;;;;;5049283;28;20029;-69
2022/07/15 05:07:22;;;;;;;2.95;1.00;;;16.70;65.00;;;;;;5050742;28;20025;-70
2022/07/15 05:09:47;;;;;;;1.15;0.80;;;16.80;65.00;;;;;;5048233;28;20025;-69
2022/07/15 05:12:13;;;;;;;1.60;0.80;;;16.70;65.00;;;;;;5052208;28;20032;-68
2022/07/15 05:14:40;;;;;;;2.50;0.95;;;16.80;65.00;;;;;;5048709;28;20064;-70
2022/07/15 05:17:06;;;;;;;2.05;1.10;;;16.80;65.00;;;;;;5051430;28;20033;-68
2022/07/15 05:19:33;;;;;;;2.75;0.90;;;16.80;65.00;;;;;;5050822;28;20067;-69
2022/07/15 05:21:58;;;;;;;3.08;0.90;;;17.00;64.70;;;;;;5051625;28;20097;-68
2022/07/15 05:24:24;;;;;;;1.50;0.88;;;17.20;64.40;;;;;;5050493;28;20115;-68
2022/07/15 05:26:49;;;;;;;2.85;1.10;;;18.20;62.70;;;;;;5051639;28;20025;-70
2022/07/15 05:29:15;;;;;;;2.17;1.05;;;19.10;60.30;;;;;;5043735;28;20025;-69
2022/07/15 05:31:40;;;;;;;1.85;1.00;;;20.00;58.10;;;;;;5039641;28;20024;-69
2022/07/15 05:34:06;;;;;;;2.38;1.00;;;20.90;56.30;;;;;;5048056;28;20377;-69
2022/07/15 05:36:32;;;;;;;2.50;1.15;;;21.50;54.70;;;;;;5048334;28;20025;-68
2022/07/15 05:38:58;;;;;;;2.10;1.20;;;22.00;53.30;;;;;;5050053;28;20040;-70
2022/07/15 05:41:23;;;;;;;3.03;1.30;;;22.40;52.50;;;;;;5046886;28;20021;-69
2022/07/15 05:43:49;;;;;;;2.90;1.15;;;22.60;51.80;;;;;;5050786;28;20024;-70
2022/07/15 05:46:14;;;;;;;2.42;1.00;;;22.60;51.50;;;;;;5047370;28;20418;-69
2022/07/15 05:48:41;;;;;;;3.45;1.00;;;22.80;51.50;;;;;;5051612;28;20100;-68
2022/07/15 05:51:07;;;;;;;2.55;1.15;;;23.00;51.00;;;;;;5046038;28;20120;-68
2022/07/15 05:53:32;;;;;;;3.38;1.05;;;23.20;50.50;;;;;;5049192;28;20575;-69
2022/07/15 05:55:58;;;;;;;2.47;1.10;;;23.40;50.10;;;;;;5039417;28;20025;-68
2022/07/15 05:58:24;;;;;;;2.50;1.00;;;23.40;50.00;;;;;;5049533;28;20025;-67
2022/07/15 06:00:53;;;;;;;4.40;1.30;;;23.60;49.80;;;;;;5048687;28;20514;-69
2022/07/15 06:03:18;;;;;;;2.53;0.98;;;23.80;49.50;;;;;;5050001;28;20021;-68
2022/07/15 06:05:44;;;;;;;2.70;1.15;;;23.90;49.40;;;;;;5047534;28;20494;-67
2022/07/15 06:08:10;;;;;;;2.08;0.90;;;24.10;49.00;;;;;;5043875;28;20051;-71
2022/07/15 06:10:36;;;;;;;3.35;1.30;;;24.30;48.90;;;;;;5049498;28;20024;-71
2022/07/15 06:13:02;;;;;;;3.28;1.10;;;24.50;48.70;;;;;;5050389;28;20103;-68
2022/07/15 06:15:28;;;;;;;2.40;1.05;;;24.70;48.40;;;;;;5037835;28;20095;-68
2022/07/15 06:17:54;;;;;;;3.15;1.05;;;24.60;48.30;;;;;;5037849;28;20629;-70
2022/07/15 06:20:20;;;;;;;2.30;1.00;;;24.40;48.60;;;;;;5038149;28;20079;-68
2022/07/15 06:22:46;;;;;;;3.03;1.10;;;24.40;49.10;;;;;;5039182;28;20030;-68
2022/07/15 06:25:13;;;;;;;3.25;1.00;;;24.40;49.20;;;;;;5041914;28;20028;-68
2022/07/15 06:27:39;;;;;;;2.58;1.00;;;24.00;49.40;;;;;;5042679;28;20041;-69
2022/07/15 06:30:05;;;;;;;3.90;1.10;;;23.90;49.90;;;;;;5049971;28;20021;-69
2022/07/15 06:32:31;;;;;;;2.00;0.88;;;23.90;50.20;;;;;;5041788;28;20380;-68
2022/07/15 06:34:57;;;;;;;1.98;0.73;;;23.80;50.40;;;;;;5050970;28;20029;-69
2022/07/15 06:37:22;;;;;;;3.20;1.10;;;23.70;50.60;;;;;;5049111;28;20037;-68
2022/07/15 06:39:48;;;;;;;2.95;1.40;;;23.20;50.60;;;;;;5050430;28;20032;-68
2022/07/15 06:42:14;;;;;;;2.80;1.30;;;22.90;51.20;;;;;;5049762;28;20029;-68
2022/07/15 06:44:39;;;;;;;3.78;1.30;;;22.50;51.60;;;;;;5045756;28;20117;-68
2022/07/15 06:47:06;;;;;;;3.50;1.35;;;22.30;52.10;;;;;;5038502;28;20099;-68
2022/07/15 06:49:34;;;;;;;2.22;1.20;;;22.10;52.20;;;;;;5037258;28;20013;-68
2022/07/15 06:51:59;;;;;;;3.08;1.10;;;22.00;52.80;;;;;;5044266;28;20024;-68
2022/07/15 06:54:25;;;;;;;2.15;0.70;;;21.90;52.70;;;;;;5039809;28;20414;-68
2022/07/15 06:56:51;;;;;;;4.10;1.00;;;22.00;52.60;;;;;;5042809;28;20034;-68
2022/07/15 06:59:16;;;;;;;2.88;0.90;;;22.00;52.40;;;;;;5049822;28;20127;-68
2022/07/15 07:01:42;;;;;;;1.40;0.80;;;22.00;51.90;;;;;;5041879;28;20077;-69
2022/07/15 07:04:07;;;;;;;3.22;0.90;;;22.00;51.80;;;;;;5049999;28;20082;-68
2022/07/15 07:06:33;;;;;;;2.95;1.00;;;21.90;51.80;;;;;;5042734;28;20017;-68
2022/07/15 07:08:59;;;;;;;1.83;0.88;;;21.80;51.80;;;;;;5047116;28;20430;-68
2022/07/15 07:11:24;;;;;;;2.63;0.80;;;21.80;51.70;;;;;;5044197;28;20610;-68
2022/07/15 07:13:50;;;;;;;2.63;0.80;;;21.90;51.60;;;;;;5042207;28;20038;-68
2022/07/15 07:16:16;;;;;;;2.28;0.80;;;22.00;51.40;;;;;;5043705;28;20082;-68
2022/07/15 07:18:44;;;;;;;1.75;0.60;;;21.90;50.70;;;;;;5044095;28;20037;-68
2022/07/15 07:21:10;;;;;;;1.63;0.73;;;22.00;50.70;;;;;;5043931;28;20021;-68
2022/07/15 07:23:38;;;;;;;1.98;0.70;;;22.00;50.30;;;;;;5043324;28;20390;-68
2022/07/15 07:26:04;;;;;;;2.40;0.70;;;22.10;50.00;;;;;;5041290;28;20475;-67
2022/07/15 07:28:29;;;;;;;1.90;0.70;;;22.20;49.60;;;;;;5041294;28;20036;-67
2022/07/15 07:30:55;;;;;;;2.20;0.73;;;22.30;49.50;;;;;;5037187;28;20494;-67
2022/07/15 07:33:21;;;;;;;1.77;0.65;;;22.30;49.10;;;;;;5034863;28;20837;-67
2022/07/15 07:35:47;;;;;;;1.75;0.63;;;22.10;48.50;;;;;;5042374;28;20434;-67
2022/07/15 07:38:12;;;;;;;1.50;0.50;;;22.10;48.80;;;;;;5054355;28;20017;-67
2022/07/15 07:40:38;;;;;;;3.08;0.77;;;22.20;48.70;;;;;;5049786;28;20112;-69
2022/07/15 07:43:03;;;;;;;3.35;0.68;;;22.30;48.40;;;;;;5045080;28;20107;-68
2022/07/15 07:45:29;;;;;;;2.30;0.93;;;22.30;47.90;;;;;;5044840;28;20033;-69
2022/07/15 07:47:55;;;;;;;1.50;0.45;;;22.30;47.50;;;;;;5048276;28;20029;-68
2022/07/15 07:50:21;;;;;;;1.02;0.60;;;22.40;47.40;;;;;;5054285;28;20044;-69
2022/07/15 07:52:47;;;;;;;0.88;0.52;;;22.30;46.30;;;;;;5046146;28;20479;-69
2022/07/15 07:55:14;;;;;;;1.25;0.47;;;22.30;46.40;;;;;;5046071;28;20503;-68
2022/07/15 07:57:54;;;;;;;0.63;0.52;;;22.40;45.20;;;;;;5049225;28;20107;-68
2022/07/15 08:00:22;;;;;;;0.38;0.38;;;22.40;45.00;;;;;;5043657;28;20029;-68
2022/07/15 08:02:48;;;;;;;1.48;0.30;;;22.60;44.50;;;;;;5047110;28;20036;-68
2022/07/15 08:05:15;;;;;;;2.28;0.45;;;22.90;44.00;;;;;;5041034;28;20155;-68
2022/07/15 08:07:41;;;;;;;1.77;0.50;;;23.00;43.40;;;;;;5051705;28;20491;-69
2022/07/15 08:10:08;;;;;;;1.10;0.57;;;23.10;43.00;;;;;;5046933;28;20021;-67
2022/07/15 08:12:34;;;;;;;1.08;0.43;;;23.20;43.00;;;;;;5036927;28;20021;-68
2022/07/15 08:15:00;;;;;;;1.27;0.70;;;23.40;42.60;;;;;;5042651;28;20040;-68
2022/07/15 08:17:25;;;;;;;1.25;0.50;;;23.40;41.90;;;;;;5040424;28;20539;-67
2022/07/15 08:19:51;;;;;;;0.63;0.50;;;23.20;42.30;;;;;;5042905;28;20071;-69
2022/07/15 08:22:17;;;;;;;0.80;0.43;;;23.30;42.70;;;;;;5041136;28;20488;-67
2022/07/15 08:24:42;;;;;;;1.08;0.50;;;23.50;42.80;;;;;;5040303;28;20025;-67
2022/07/15 08:27:08;;;;;;;1.52;0.63;;;23.70;43.60;;;;;;5041818;28;20112;-68
2022/07/15 08:29:34;;;;;;;2.60;0.73;;;23.70;44.00;;;;;;5043003;28;20111;-68
2022/07/15 08:32:00;;;;;;;2.53;0.75;;;23.70;44.50;;;;;;5043865;28;20036;-67
2022/07/15 08:34:26;;;;;;;1.83;0.70;;;23.50;44.70;;;;;;5041268;28;20021;-67
2022/07/15 08:36:54;;;;;;;1.67;0.80;;;23.30;45.30;;;;;;5045099;28;20040;-67
2022/07/15 08:39:20;;;;;;;3.10;0.93;;;23.30;45.40;;;;;;5040383;28;20029;-68
2022/07/15 08:41:46;;;;;;;2.65;0.77;;;23.30;45.50;;;;;;5045476;28;20154;-68
2022/07/15 08:44:11;;;;;;;2.20;0.80;;;23.40;45.50;;;;;;5039930;28;20039;-68
2022/07/15 08:46:40;;;;;;;2.88;0.60;;;23.50;45.00;;;;;;5040760;28;20063;-68
2022/07/15 08:49:12;;;;;;;1.75;0.60;;;23.50;44.60;;;;;;5040654;28;20021;-67
2022/07/15 08:51:42;;;;;;;1.85;0.52;;;23.40;44.20;;;;;;5041968;28;20553;-68
2022/07/15 08:54:08;;;;;;;1.08;0.60;;;23.20;43.90;;;;;;5044507;28;20025;-66
2022/07/15 08:56:35;;;;;;;0.85;0.50;;;23.20;44.00;;;;;;5042504;28;20048;-67
2022/07/15 08:59:02;;;;;;;1.45;0.43;;;23.20;44.00;;;;;;5043776;28;20029;-67
2022/07/15 09:01:29;;;;;;;1.83;0.60;;;23.10;44.10;;;;;;5040696;28;20036;-67
2022/07/15 09:03:55;;;;;;;0.68;0.40;;;23.00;44.10;;;;;;5044047;28;20024;-67
2022/07/15 09:06:42;;;;;;;0.90;0.50;;;22.90;44.50;;;;;;5043978;28;20025;-67
2022/07/15 09:09:37;;;;;;;2.80;0.80;;;22.90;44.50;;;;;;5039885;28;20013;-67
2022/07/15 09:12:07;;;;;;;1.35;0.70;;;22.90;44.40;;;;;;5042847;28;20383;-68
2022/07/15 09:14:35;;;;;;;2.20;0.60;;;22.90;44.60;;;;;;5043551;28;20105;-69
2022/07/15 09:17:11;;;;;;;0.75;0.50;;;22.90;44.60;;;;;;5044632;28;20041;-69
2022/07/15 09:19:55;;;;;;;2.50;0.65;;;23.00;44.60;;;;;;5042384;28;20043;-68
2022/07/15 09:22:21;;;;;;;1.50;0.60;;;23.20;44.50;;;;;;5039978;28;20033;-68
2022/07/15 09:24:50;;;;;;;1.73;0.50;;;23.40;43.90;;;;;;5042355;28;20074;-67
2022/07/15 09:27:31;;;;;;;1.75;0.88;;;23.50;43.60;;;;;;5042877;28;20028;-67
2022/07/15 09:36:01;;;;;;;1.73;0.60;;;23.50;43.80;;;;;;5044726;28;20072;-66
2022/07/15 09:38:29;;;;;;;1.38;0.50;;;23.40;44.00;;;;;;5045454;28;20032;-67
2022/07/15 09:40:55;;;;;;;2.83;0.70;;;23.20;44.20;;;;;;5044741;28;20021;-69
2022/07/15 09:43:20;;;;;;;1.67;0.75;;;23.20;44.60;;;;;;5044687;28;20059;-68
2022/07/15 09:45:46;;;;;;;1.58;0.60;;;23.10;44.90;;;;;;5046505;28;20032;-67
2022/07/15 09:48:15;;;;;;;1.88;0.70;;;23.00;45.20;;;;;;5046106;28;20214;-67
2022/07/15 09:50:41;;;;;;;1.80;0.82;;;23.00;45.40;;;;;;5044488;28;20024;-67
2022/07/15 09:53:16;;;;;;;2.05;0.60;;;23.00;45.40;;;;;;5044581;28;20017;-67
2022/07/15 09:55:42;;;;;;;3.33;0.80;;;23.10;45.50;;;;;;5047462;28;20364;-67
2022/07/15 09:58:08;;;;;;;1.50;0.60;;;23.10;45.50;;;;;;5048866;28;20032;-66
2022/07/15 10:00:36;;;;;;;1.80;0.50;;;23.20;45.50;;;;;;5049791;28;20037;-67
2022/07/15 10:03:02;;;;;;;1.10;0.70;;;23.30;45.40;;;;;;5048830;28;20803;-68
2022/07/15 10:05:28;;;;;;;1.58;0.60;;;23.40;45.30;;;;;;5048451;28;20112;-68
2022/07/15 10:07:56;;;;;;;1.65;0.80;;;23.30;44.40;;;;;;5045090;28;20017;-68
2022/07/15 10:10:22;;;;;;;2.25;0.68;;;23.10;44.50;;;;;;5049561;28;20071;-67
2022/07/15 10:13:25;;;;;;;2.17;1.10;;;23.00;45.00;;;;;;5046770;28;20021;-67
2022/07/15 10:16:13;;;;;;;1.30;0.50;;;23.00;45.00;;;;;;5047067;28;20025;-67
2022/07/15 10:19:10;;;;;;;1.75;0.50;;;23.00;45.00;;;;;;5047340;28;20025;-68
2022/07/15 10:21:45;;;;;;;1.00;0.57;;;23.00;45.20;;;;;;5046080;28;20518;-68
2022/07/15 10:24:54;;;;;;;1.13;0.50;;;23.00;45.00;;;;;;5045365;28;20121;-68
2022/07/15 10:27:37;;;;;;;1.80;0.60;;;23.20;45.00;;;;;;5061636;28;20029;-68
2022/07/15 10:30:05;;;;;;;1.42;0.50;;;23.40;44.40;;;;;;5046263;28;20039;-67
2022/07/15 10:33:03;;;;;;;1.55;0.70;;;23.50;44.20;;;;;;5047785;28;20100;-67
2022/07/15 10:35:48;;;;;;;2.15;0.70;;;23.70;44.00;;;;;;5044439;28;20044;-67
2022/07/15 10:38:30;;;;;;;0.98;0.50;;;23.80;43.50;;;;;;5042886;28;20509;-66
2022/07/15 10:41:21;;;;;;;1.58;0.60;;;23.90;43.20;;;;;;5046800;28;20137;-67
2022/07/15 10:43:51;;;;;;;1.95;0.70;;;24.10;43.00;;;;;;5047867;28;20421;-68
2022/07/15 10:46:17;;;;;;;1.13;0.57;;;24.20;42.70;;;;;;5044686;28;20029;-68
2022/07/15 10:49:05;;;;;;;1.25;0.60;;;24.30;42.50;;;;;;5047560;28;20104;-68
2022/07/15 10:51:37;;;;;;;1.98;0.60;;;24.40;42.50;;;;;;5050705;28;20458;-68
2022/07/15 10:54:17;;;;;;;2.08;0.73;;;24.50;42.20;;;;;;5043248;28;20590;-68
2022/07/15 10:56:49;;;;;;;0.50;0.40;;;24.80;42.20;;;;;;5039100;28;20099;-69
2022/07/15 10:59:19;;;;;;;0.63;0.40;;;25.00;41.50;;;;;;5047616;28;20086;-67
2022/07/15 11:01:48;;;;;;;1.63;0.57;;;25.10;41.30;;;;;;5046688;28;20040;-68
2022/07/15 11:04:19;;;;;;;1.13;0.52;;;25.10;41.10;;;;;;5044404;28;20510;-68
2022/07/15 11:07:03;;;;;;;1.33;0.60;;;25.30;41.10;;;;;;5045408;28;20025;-68
2022/07/15 11:09:50;;;;;;;0.85;0.50;;;25.40;40.90;;;;;;5046714;28;20090;-68
2022/07/15 11:12:18;;;;;;;1.35;0.63;;;25.30;40.60;;;;;;5044164;28;20017;-68
2022/07/15 11:14:48;;;;;;;1.25;0.50;;;25.20;40.50;;;;;;5040206;28;20034;-68
2022/07/15 11:17:19;;;;;;;0.85;0.50;;;25.10;40.70;;;;;;5040482;28;20029;-67
2022/07/15 11:19:49;;;;;;;0.52;0.40;;;25.00;40.90;;;;;;5044911;28;20492;-68
2022/07/15 11:22:17;;;;;;;1.30;0.50;;;24.90;41.00;;;;;;5039434;28;20546;-67
2022/07/15 11:24:43;;;;;;;1.30;0.50;;;24.70;41.10;;;;;;5044087;28;20037;-67
2022/07/15 11:27:09;;;;;;;1.63;0.50;;;24.60;41.40;;;;;;5041049;28;20032;-67
2022/07/15 11:29:42;;;;;;;1.33;0.50;;;24.60;41.70;;;;;;5043726;28;20025;-67
2022/07/15 11:32:08;;;;;;;2.47;0.60;;;24.60;41.80;;;;;;5043920;28;20021;-68
2022/07/15 11:34:47;;;;;;;1.15;0.47;;;24.60;41.80;;;;;;5045262;28;20538;-67
2022/07/15 11:37:18;;;;;;;1.55;0.55;;;24.60;41.70;;;;;;5045205;28;20043;-67
2022/07/15 11:39:48;;;;;;;0.88;0.50;;;24.60;41.50;;;;;;5043696;28;20033;-67
2022/07/15 11:45:08;;;;;;;2.17;0.73;;;24.30;41.40;;;;;;5042425;28;20122;-68
2022/07/15 11:47:35;;;;;;;1.77;0.70;;;24.30;41.30;;;;;;5041568;28;20048;-67
2022/07/15 11:50:05;;;;;;;1.23;0.65;;;24.20;41.00;;;;;;5043334;28;20039;-68
2022/07/15 11:52:31;;;;;;;1.20;0.55;;;24.10;41.20;;;;;;5045310;28;20044;-68
2022/07/15 11:54:57;;;;;;;1.40;0.70;;;24.20;41.40;;;;;;5044003;28;20021;-68
2022/07/15 11:57:23;;;;;;;1.23;0.40;;;24.30;41.60;;;;;;5044687;28;20072;-68
2022/07/15 11:59:57;;;;;;;2.85;0.70;;;24.60;41.30;;;;;;5039509;28;20021;-69
2022/07/15 12:02:27;;;;;;;0.73;0.38;;;24.80;40.90;;;;;;5044083;28;20033;-68
2022/07/15 12:05:03;;;;;;;1.77;0.60;;;24.90;40.80;;;;;;5044912;28;20036;-69
2022/07/15 12:07:43;;;;;;;1.60;0.55;;;24.80;40.90;;;;;;5044692;28;20107;-68
2022/07/15 12:10:09;;;;;;;0.73;0.50;;;24.90;40.90;;;;;;5041755;28;20013;-68
2022/07/15 12:12:53;;;;;;;1.60;0.60;;;25.10;40.70;;;;;;5048978;28;20518;-69
2022/07/15 12:15:20;;;;;;;1.45;0.52;;;25.30;40.50;;;;;;5044740;28;20117;-68
2022/07/15 12:17:46;;;;;;;1.48;0.50;;;25.10;40.00;;;;;;5039588;28;20112;-68
2022/07/15 12:20:12;;;;;;;1.60;0.50;;;25.20;40.10;;;;;;5041946;28;20510;-68
2022/07/15 12:22:58;;;;;;;1.45;0.63;;;25.20;39.70;;;;;;5046447;28;20025;-67
2022/07/15 12:25:23;;;;;;;0.77;0.38;;;25.30;40.00;;;;;;5041471;28;20105;-68
2022/07/15 12:27:49;;;;;;;1.27;0.60;;;25.80;39.80;;;;;;5043312;28;20151;-68
2022/07/15 12:30:14;;;;;;;2.13;0.60;;;26.00;39.40;;;;;;5047028;28;20094;-68
2022/07/15 12:32:40;;;;;;;1.27;0.40;;;26.20;38.90;;;;;;5044007;28;20022;-68
2022/07/15 12:35:07;;;;;;;0.90;0.50;;;26.40;38.60;;;;;;5050000;28;20035;-69
2022/07/15 12:37:41;;;;;;;3.63;0.55;;;26.40;38.40;;;;;;5048853;28;20051;-68
2022/07/15 12:40:10;;;;;;;0.60;0.40;;;26.20;38.30;;;;;;5049846;28;20151;-68
2022/07/15 12:42:44;;;;;;;1.67;0.73;;;26.10;38.60;;;;;;5043729;28;20048;-69
2022/07/15 12:45:16;;;;;;;1.48;0.63;;;26.00;38.80;;;;;;5045049;28;20021;-68
2022/07/15 12:48:02;;;;;;;2.25;0.60;;;25.90;39.20;;;;;;5049091;28;20025;-68
2022/07/15 12:50:30;;;;;;;2.00;0.40;;;25.80;39.40;;;;;;5050623;28;20044;-68
2022/07/15 12:52:57;;;;;;;0.95;0.55;;;25.60;39.50;;;;;;5048138;28;20025;-69
2022/07/15 12:55:25;;;;;;;1.48;0.50;;;25.40;39.30;;;;;;5049774;28;20530;-69
2022/07/15 12:58:01;;;;;;;2.78;0.50;;;25.10;39.60;;;;;;5050211;28;20037;-69
2022/07/15 13:00:29;;;;;;;1.65;0.50;;;24.90;39.70;;;;;;5047195;28;20047;-68
2022/07/15 13:03:01;;;;;;;1.52;0.50;;;24.80;40.10;;;;;;5045352;28;20399;-69
2022/07/15 13:05:30;;;;;;;1.75;0.80;;;24.70;40.20;;;;;;5045492;28;20383;-68